Race Results for…
2017 Sugar Creek Jingle Bell Jog

December 09, 2017 Results presented by Sugar Creek Fun Runs and timed by SVE Timing East
Participants:
283
Last Updated:
12/9/2017 4:42:04 PM
Stats

Leaderboards

Jump to a Leaderboard

5K

Male - Overall
Bib Name Gun Elapsed Pace City Age
1 121 HARPER HARRIS 00:16:19 05:15 min/mile GREER 17
2 198 NICOLAS MONNIER 00:17:59 05:48 min/mile GREER 39
3 241 PAUL PIRONNEAU 00:18:17 05:53 min/mile GREER 15
Female - Overall
Bib Name Gun Elapsed Pace City Age
1 253 KATHERINE ROGERS 00:18:09 05:51 min/mile GREER 14
2 252 ELIZABETH ROGERS 00:18:20 05:54 min/mile GREER 14
3 122 KAYLA HARRIS 00:20:13 06:31 min/mile GREER 15

Overall Results

Tip: Swipe the results table to view more.
283 entrants …
5K Results
Race Place Bib Name Gun Elapsed Age Gender City State Gender Place Age Place Pace
1 121 HARPER HARRIS 00:16:19 17 M GREER SC 1 1 05:15 min/mile
2 198 NICOLAS MONNIER 00:17:59 39 M GREER SC 2 1 05:48 min/mile
3 253 KATHERINE ROGERS 00:18:09 14 F GREER SC 1 1 05:51 min/mile
4 241 PAUL PIRONNEAU 00:18:17 15 M GREER SC 3 2 05:53 min/mile
5 252 ELIZABETH ROGERS 00:18:20 14 F GREER SC 2 2 05:54 min/mile
6 82 SEAN FLANAGAN 00:18:50 28 M GREER SC 4 1 06:04 min/mile
7 64 WILL DOLVEN 00:19:01 18 M GREER SC 5 3 06:08 min/mile
8 81 CHRISTOPHER FERLAND 00:19:01 47 M TRAVELERS REST SC 6 1 06:08 min/mile
9 12 ISAAC BERES 00:19:18 13 M GREER SC 7 1 06:13 min/mile
10 175 MATTHEW LITTRELL 00:19:22 14 M GREER SC 8 2 06:14 min/mile
11 52 CONNOR CUMMINGS 00:19:25 15 M SIMPSONVILLE SC 9 4 06:15 min/mile
12 122 KAYLA HARRIS 00:20:13 15 F GREER SC 3 1 06:31 min/mile
13 354 DAVIDSON CHOU 00:20:13 10 M 10 3 06:31 min/mile
14 128 AUSTIN HINRICHSEN 00:20:17 15 M GREENVILLE SC 11 5 06:32 min/mile
15 54 GEORGE DAVENPORT III 00:20:28 11 M GREER SC 12 4 06:36 min/mile
16 130 HUNTER HINRICHSEN 00:20:29 11 M GREENVILLE SC 13 5 06:36 min/mile
17 181 DAVID MAINKA 00:20:34 47 M GREER SC 14 2 06:38 min/mile
18 17 ELLE BISSINGER 00:21:00 11 F GREENVILLE SC 4 3 06:46 min/mile
19 201 KYLE MONTE 00:21:08 9 M SIMPSONVILLE SC 15 1 06:49 min/mile
20 36 ERIN BUSCH 00:21:09 32 F GREER SC 5 1 06:49 min/mile
21 34 GRAY BUCHANAN 00:21:15 44 M SIMPSONVILLE SC 16 3 06:51 min/mile
22 102 DAVID GARRETT 00:21:17 18 M GREER SC 17 6 06:51 min/mile
23 342 JOSHUA LINEBAUGH 00:21:28 11 M 18 6 06:55 min/mile
24 250 FOSTER RODWELL 00:21:54 36 M GREER SC 19 2 07:03 min/mile
25 7 FREDERIC BEHM 00:22:10 46 M GREER SC 20 4 07:09 min/mile
26 176 MORGAN LITTRELL 00:22:21 14 F GREER SC 6 4 07:12 min/mile
27 32 ALLY BUCHANAN 00:22:35 10 F SIMPSONVILLE SC 7 5 07:17 min/mile
28 16 ANNIKA BISSINGER 00:22:37 16 F GREENVILLE SC 8 2 07:17 min/mile
29 287 ROBBIE TEMPLETON 00:22:40 55 M GREENWOOD SC 21 1 07:18 min/mile
30 302 IAN WHATLEY 00:22:51 58 M GREER SC 22 2 07:22 min/mile
31 27 THOMAS BRACKBILL 00:22:54 14 F GREENVILLE SC 9 6 07:23 min/mile
32 320 STEPHEN BRACKBILL 00:22:58 45 M GREENVILLE SC 23 5 07:24 min/mile
33 152 MCKEE KENT 00:23:21 9 F GREER SC 10 1 07:31 min/mile
34 151 KELLY KENT 00:23:22 43 F GREER SC 11 1 07:32 min/mile
35 184 CANDACE MARTIN 00:23:36 26 F TRAVELERS REST SC 12 1 07:36 min/mile
36 59 MELAINA DICKINSON 00:23:59 10 F GREER SC 13 7 07:44 min/mile
37 331 BRAD LOVE 00:24:03 43 M GREER SC 24 6 07:45 min/mile
38 345 ALAN BRISTOL 00:24:04 55 M 25 3 07:45 min/mile
39 332 FORD LOVE 00:24:05 13 M GREER SC 26 7 07:46 min/mile
40 351 TREY SULLIVAN 00:24:07 13 M 27 8 07:46 min/mile
41 205 GRIFFIN MOORE 00:24:22 10 M GREER SC 28 9 07:51 min/mile
42 285 KEVIN STIENS 00:24:25 39 M SIMPSONVILLE SC 29 3 07:52 min/mile
43 139 JOY HOWARD 00:24:37 51 F TOWNVILLE SC 14 1 07:56 min/mile
44 71 BRANDON DUFALA 00:24:42 41 M EASLEY SC 30 7 07:58 min/mile
45 129 CHASE HINRICHSEN 00:24:46 11 M GREENVILLE SC 31 10 07:59 min/mile
46 191 LINDSAY MCMURRAY 00:24:55 15 F GREER SC 15 3 08:02 min/mile
47 211 KIMBERLY MORGAN 00:24:55 44 F GREENVILLE SC 16 2 08:02 min/mile
48 299 BRIAN WENINGER 00:25:13 42 M SIMPSONVILLE SC 32 8 08:08 min/mile
49 169 KATE LEINEWEBER 00:25:17 11 F GREENVILLE SC 17 8 08:09 min/mile
50 357 SCOTT MARKLE 00:25:22 60 M 33 1 08:10 min/mile
283 entrants …

Winners

Tip: Slide the results table left and right to view more.
Overall
Race Place Bib Name Gun Elapsed Age Gender City State Gender Place Age Place Pace
1 121 HARPER HARRIS 00:16:19 17 M GREER SC 1 1 05:15 min/mile
2 198 NICOLAS MONNIER 00:17:59 39 M GREER SC 2 1 05:48 min/mile
4 241 PAUL PIRONNEAU 00:18:17 15 M GREER SC 3 2 05:53 min/mile
3 253 KATHERINE ROGERS 00:18:09 14 F GREER SC 1 1 05:51 min/mile
5 252 ELIZABETH ROGERS 00:18:20 14 F GREER SC 2 2 05:54 min/mile
12 122 KAYLA HARRIS 00:20:13 15 F GREER SC 3 1 06:31 min/mile
1 - 9
Race Place Bib Name Gun Elapsed Age Gender City State Gender Place Age Place Pace
19 201 KYLE MONTE 00:21:08 9 M SIMPSONVILLE SC 15 1 06:49 min/mile
65 98 WILLIAM FURAY 00:26:34 9 M SIMPSONVILLE SC 39 2 08:34 min/mile
69 138 COOPER HOWARD 00:26:43 9 M TOWNVILLE SC 41 3 08:37 min/mile
81 353 STASSEL CHOU 00:27:13 8 M 47 4 08:46 min/mile
101 356 ALEX DRAKE 00:28:16 9 M 55 5 09:07 min/mile
33 152 MCKEE KENT 00:23:21 9 F GREER SC 10 1 07:31 min/mile
52 186 ELEANOR MASSINGILL 00:25:33 9 F GREER SC 19 2 08:14 min/mile
91 195 LARKIN MILLER 00:27:35 7 F GREER SC 39 3 08:53 min/mile
127 286 RILEY STIENS 00:29:54 9 F SIMPSONVILLE SC 55 4 09:38 min/mile
145 108 HILL GLENN 00:30:56 7 F GREENVILLE SC 63 5 09:58 min/mile
10 - 14
Race Place Bib Name Gun Elapsed Age Gender City State Gender Place Age Place Pace
9 12 ISAAC BERES 00:19:18 13 M GREER SC 7 1 06:13 min/mile
10 175 MATTHEW LITTRELL 00:19:22 14 M GREER SC 8 2 06:14 min/mile
13 354 DAVIDSON CHOU 00:20:13 10 M 10 3 06:31 min/mile
15 54 GEORGE DAVENPORT III 00:20:28 11 M GREER SC 12 4 06:36 min/mile
16 130 HUNTER HINRICHSEN 00:20:29 11 M GREENVILLE SC 13 5 06:36 min/mile
3 253 KATHERINE ROGERS 00:18:09 14 F GREER SC 1 1 05:51 min/mile
5 252 ELIZABETH ROGERS 00:18:20 14 F GREER SC 2 2 05:54 min/mile
18 17 ELLE BISSINGER 00:21:00 11 F GREENVILLE SC 4 3 06:46 min/mile
26 176 MORGAN LITTRELL 00:22:21 14 F GREER SC 6 4 07:12 min/mile
27 32 ALLY BUCHANAN 00:22:35 10 F SIMPSONVILLE SC 7 5 07:17 min/mile
15 - 19
Race Place Bib Name Gun Elapsed Age Gender City State Gender Place Age Place Pace
1 121 HARPER HARRIS 00:16:19 17 M GREER SC 1 1 05:15 min/mile
4 241 PAUL PIRONNEAU 00:18:17 15 M GREER SC 3 2 05:53 min/mile
7 64 WILL DOLVEN 00:19:01 18 M GREER SC 5 3 06:08 min/mile
11 52 CONNOR CUMMINGS 00:19:25 15 M SIMPSONVILLE SC 9 4 06:15 min/mile
14 128 AUSTIN HINRICHSEN 00:20:17 15 M GREENVILLE SC 11 5 06:32 min/mile
12 122 KAYLA HARRIS 00:20:13 15 F GREER SC 3 1 06:31 min/mile
28 16 ANNIKA BISSINGER 00:22:37 16 F GREENVILLE SC 8 2 07:17 min/mile
46 191 LINDSAY MCMURRAY 00:24:55 15 F GREER SC 15 3 08:02 min/mile
60 289 SARAH THOMASON 00:26:08 15 F GREER SC 22 4 08:25 min/mile
61 312 CHLOE WRIGHT 00:26:09 15 F TAYLORS SC 23 5 08:26 min/mile
20 - 29
Race Place Bib Name Gun Elapsed Age Gender City State Gender Place Age Place Pace
6 82 SEAN FLANAGAN 00:18:50 28 M GREER SC 4 1 06:04 min/mile
74 233 ALEX PEACHEY 00:26:52 20 M GREER SC 43 2 08:40 min/mile
35 184 CANDACE MARTIN 00:23:36 26 F TRAVELERS REST SC 12 1 07:36 min/mile
54 63 SARAH DOBSON 00:25:36 27 F GREER SC 20 2 08:15 min/mile
97 23 HUNTER BOWERS 00:28:10 22 F GREER SC 44 3 09:05 min/mile
98 217 JULIE NIERSTEDT 00:28:11 20 F MYRTLE BEACH SC 45 4 09:05 min/mile
30 - 39
Race Place Bib Name Gun Elapsed Age Gender City State Gender Place Age Place Pace
2 198 NICOLAS MONNIER 00:17:59 39 M GREER SC 2 1 05:48 min/mile
24 250 FOSTER RODWELL 00:21:54 36 M GREER SC 19 2 07:03 min/mile
42 285 KEVIN STIENS 00:24:25 39 M SIMPSONVILLE SC 29 3 07:52 min/mile
58 318 ANDY BINDEWALD 00:26:03 39 M BOILING SPRINGS NC 38 4 08:24 min/mile
88 335 JESSE SMITH 00:27:28 38 M GREER SC 52 5 08:51 min/mile
20 36 ERIN BUSCH 00:21:09 32 F GREER SC 5 1 06:49 min/mile
59 242 BARBARA PURICA 00:26:07 37 F GREER SC 21 2 08:25 min/mile
82 324 SARAH COX 00:27:13 30 F GREER SC 35 3 08:46 min/mile
90 336 RACHEL SMITH 00:27:31 30 F GREER SC 38 4 08:52 min/mile
116 77 KATE ELLIOTT 00:29:16 38 F SIMPSONVILLE SC 49 5 09:26 min/mile
40 - 49
Race Place Bib Name Gun Elapsed Age Gender City State Gender Place Age Place Pace
8 81 CHRISTOPHER FERLAND 00:19:01 47 M TRAVELERS REST SC 6 1 06:08 min/mile
17 181 DAVID MAINKA 00:20:34 47 M GREER SC 14 2 06:38 min/mile
21 34 GRAY BUCHANAN 00:21:15 44 M SIMPSONVILLE SC 16 3 06:51 min/mile
25 7 FREDERIC BEHM 00:22:10 46 M GREER SC 20 4 07:09 min/mile
32 320 STEPHEN BRACKBILL 00:22:58 45 M GREENVILLE SC 23 5 07:24 min/mile
34 151 KELLY KENT 00:23:22 43 F GREER SC 11 1 07:32 min/mile
47 211 KIMBERLY MORGAN 00:24:55 44 F GREENVILLE SC 16 2 08:02 min/mile
51 177 RACHEL LOESCHER 00:25:26 43 F GREER SC 18 3 08:12 min/mile
64 99 LYNNE FURAY BURNS 00:26:33 48 F SIMPSONVILLE SC 26 4 08:33 min/mile
70 107 HEATHER C GILL 00:26:45 45 F SIMPSONVILLE SC 29 5 08:37 min/mile
50 - 59
Race Place Bib Name Gun Elapsed Age Gender City State Gender Place Age Place Pace
29 287 ROBBIE TEMPLETON 00:22:40 55 M GREENWOOD SC 21 1 07:18 min/mile
30 302 IAN WHATLEY 00:22:51 58 M GREER SC 22 2 07:22 min/mile
38 345 ALAN BRISTOL 00:24:04 55 M 25 3 07:45 min/mile
72 137 BRADLEY HOWARD 00:26:46 58 M TOWNVILLE SC 42 4 08:38 min/mile
83 159 BRIAN LAGE 00:27:13 51 M GREER SC 48 5 08:46 min/mile
43 139 JOY HOWARD 00:24:37 51 F TOWNVILLE SC 14 1 07:56 min/mile
67 263 ANGIE SCHEMM 00:26:41 53 F SIMPSONVILLE SC 28 2 08:36 min/mile
122 180 AMY MAHON 00:29:38 52 F GREENVILLE SC 52 3 09:33 min/mile
162 142 JANET HUGHES 00:32:42 54 F GREER SC 73 4 10:32 min/mile
177 125 SUSAN HEISER 00:35:07 58 F GREER SC 86 5 11:19 min/mile
60 - 98
Race Place Bib Name Gun Elapsed Age Gender City State Gender Place Age Place Pace
50 357 SCOTT MARKLE 00:25:22 60 M 33 1 08:10 min/mile
78 49 BRYAN CONNINGTON 00:27:10 61 M GREER SC 45 2 08:45 min/mile
96 333 MIKE NOCITO 00:28:02 62 M GREER SC 53 3 09:02 min/mile
112 5 ROBERT BANDHOLZ 00:29:04 70 M GREER SC 64 4 09:22 min/mile
176 229 JOSE LEON PADILLA 00:35:04 60 M LYMAN SC 91 5 11:18 min/mile
95 348 ELAINE CONNINGTON 00:27:48 61 F 43 1 08:58 min/mile
161 88 JACQUI FOSTER 00:32:38 61 F GREER SC 72 2 10:31 min/mile
170 230 PAMELA PADILLA 00:34:13 63 F LYMAN SC 80 3 11:02 min/mile
174 290 JOAN THOMPSON 00:34:40 71 F GREER SC 84 4 11:10 min/mile
275 187 CATHY MATHIS 00:48:10 69 F GREER SC 151 5 15:32 min/mile

Race Info

Participants:
283
Last Updated:
12/9/2017 4:42:04 PM

Tip: Swipe the results table to view more.

Search for Name, Bib, City, State or Team
in the field above… by clicking the icon below…

Notes & Race Statistics

5K - 283


Male
Total Finishers Avg Pace
128 09:51

Female
Total Finishers Avg Pace
155 11:00
This event was timed using RM Timing Systems
Take control of your event

Have a question or need to make a correction?

Submit a Result Correction